• Join FlightAware (Why Join?)
  • Login
  • US Flag 
10:19PM EDT


 

Airport Tracker/Info


-or-


 

Live Flight TrackerFlight Track Log ✈ AZU4319 ✈ 23-Apr-2014 ✈ SBSR / SJP - SBKP / VCP

Flight Track Log - Related Links

Times and Time Zones

All times are in EDT time to prevent confusion due to time zone crossing. See the AZU4319 flight status page for this flight to view local times or setup timezone preferences in your user account.

Time Position Orientation Groundspeed Altitude Reporting Facility
EDT Latitude Longitude Course Direction KTS MPH feet Rate Location/Type
07:56PM -21.5574 -48.7903 138° Southeast 267 307 15,000  Level FlightAware ADS-B (SDAM)
07:57PM -21.6082 -48.7422 138° Southeast 272 313 15,000  Level FlightAware ADS-B (SDAM)
07:57PM -21.6321 -48.7199 138° Southeast 274 315 15,000  Level FlightAware ADS-B (SDAM)
07:58PM -21.6632 -48.6910 139° Southeast 275 316 15,000  Level FlightAware ADS-B (SDAM)
07:58PM -21.6699 -48.6848 138° Southeast 277 319 15,000  Level FlightAware ADS-B (SDAM)
07:59PM -21.7242 -48.6340 138° Southeast 277 319 15,000  Level FlightAware ADS-B (SDAM)
07:59PM -21.7365 -48.6225 138° Southeast 277 319 15,000  Level FlightAware ADS-B (SDAM)
08:00PM -21.7829 -48.5793 138° Southeast 275 316 15,000  Level FlightAware ADS-B (SDAM)
08:01PM -21.8009 -48.5623 138° Southeast 275 316 15,000  Level FlightAware ADS-B (SDAM)
08:01PM -21.8399 -48.5249 137° Southeast 275 316 15,000  Level FlightAware ADS-B (SDAM)
08:02PM -21.8697 -48.4951 136° Southeast 273 314 15,000  Level FlightAware ADS-B (SDAM)
08:02PM -21.8972 -48.4676 137° Southeast 274 315 15,000  Level FlightAware ADS-B (SDAM)
08:03PM -21.9253 -48.4397 137° Southeast 274 315 15,000  Level FlightAware ADS-B (SDAM)
08:03PM -21.9533 -48.4119 137° Southeast 273 314 15,000  Level FlightAware ADS-B (SDAM)
08:04PM -21.9803 -48.3852 137° Southeast 272 313 15,000  Level FlightAware ADS-B (SDAM)
08:04PM -22.0249 -48.3358 133° Southeast 270 311 15,000  Level FlightAware ADS-B (SDAM)
08:05PM -22.0511 -48.3059 133° Southeast 270 311 15,000  Level FlightAware ADS-B (SDAM)
08:05PM -22.0773 -48.2765 133° Southeast 272 313 15,000  Level FlightAware ADS-B (SDAM)
08:06PM -22.1034 -48.2471 133° Southeast 272 313 15,000  Level FlightAware ADS-B (SDAM)
08:06PM -22.1295 -48.2177 133° Southeast 273 314 15,000  Level FlightAware ADS-B (SDAM)
08:07PM -22.1561 -48.1877 133° Southeast 275 316 15,000  Level FlightAware ADS-B (SDAM)
08:07PM -22.1826 -48.1579 133° Southeast 275 316 15,000  Level FlightAware ADS-B (SDAM)
08:08PM -22.2094 -48.1276 133° Southeast 275 316 15,000  Level FlightAware ADS-B (SDAM)
08:08PM -22.2355 -48.0980 133° Southeast 275 316 15,000  Level FlightAware ADS-B (SDAM)
08:09PM -22.2621 -48.0681 133° Southeast 275 316 15,000  Level FlightAware ADS-B (SDAM)
08:09PM -22.2892 -48.0374 133° Southeast 277 319 15,000  Level FlightAware ADS-B (SDAM)
08:10PM -22.3152 -48.0080 133° Southeast 277 319 15,000  Level FlightAware ADS-B (SDAM)
08:10PM -22.3416 -47.9781 133° Southeast 278 320 15,000  Level FlightAware ADS-B (SDAM)
08:11PM -22.3689 -47.9473 133° Southeast 278 320 15,000  Level FlightAware ADS-B (SDAM)
08:11PM -22.3956 -47.9169 133° Southeast 278 320 15,000  Level FlightAware ADS-B (SDAM)
08:12PM -22.4223 -47.8868 133° Southeast 278 320 15,000  Level FlightAware ADS-B (SDAM)
08:12PM -22.4484 -47.8571 133° Southeast 277 319 15,000  Level FlightAware ADS-B (SDAM)
08:13PM -22.4756 -47.8263 133° Southeast 277 319 15,000  Level FlightAware ADS-B (SDAM)
08:13PM -22.5023 -47.7961 133° Southeast 276 318 15,000  Level FlightAware ADS-B (SDAM)
08:14PM -22.5287 -47.7661 133° Southeast 276 318 15,000  Level FlightAware ADS-B (SDAM)
08:14PM -22.5554 -47.7358 133° Southeast 276 318 15,000 -420 Level FlightAware ADS-B (SDAM)
08:15PM -22.5870 -47.6999 133° Southeast 289 333 14,600 -1,020 Descending FlightAware ADS-B (SDAM)
08:15PM -22.6147 -47.6684 133° Southeast 291 335 13,900 -1,500 Descending FlightAware ADS-B (SDAM)
08:16PM -22.6428 -47.6365 133° Southeast 286 329 13,100 -1,500 Descending FlightAware ADS-B (SDAM)
08:16PM -22.6699 -47.6055 133° Southeast 283 326 12,400 -1,500 Descending FlightAware ADS-B (SDAM)
08:17PM -22.6966 -47.5749 131° Southeast 281 323 11,600 -1,500 Descending FlightAware ADS-B (SDAM)
08:17PM -22.7205 -47.5411 126° Southeast 281 323 10,900 -1,560 Descending FlightAware ADS-B (SDAM)
08:18PM -22.7438 -47.5066 124° Southeast 279 321 10,100 -1,500 Descending FlightAware ADS-B (SDAM)
08:18PM -22.7541 -47.4895 122° Southeast 276 318 9,800 -1,380 Descending FlightAware ADS-B (SDAM)
08:18PM -22.7649 -47.4723 126° Southeast 271 312 9,400 -1,440 Descending FlightAware ADS-B (SDAM)
08:19PM -22.7763 -47.4558 127° Southeast 267 307 9,100 -1,260 Descending FlightAware ADS-B (SDAM)
08:19PM -22.7873 -47.4403 127° Southeast 263 303 8,800 -1,440 Descending FlightAware ADS-B (SDAM)
08:19PM -22.7987 -47.4247 128° Southeast 261 300 8,400 -1,620 Descending FlightAware ADS-B (SDAM)
08:19PM -22.8099 -47.4094 128° Southeast 259 298 8,000 -1,560 Descending FlightAware ADS-B (SDAM)
08:20PM -22.8212 -47.3939 128° Southeast 258 297 7,600 -1,440 Descending FlightAware ADS-B (SDAM)
08:20PM -22.8321 -47.3790 127° Southeast 247 284 7,300 -1,440 Descending FlightAware ADS-B (SDAM)
08:20PM -22.8425 -47.3646 127° Southeast 235 270 6,900 -1,380 Descending FlightAware ADS-B (SDAM)
08:20PM -22.8525 -47.3505 127° Southeast 223 257 6,600 -1,260 Descending FlightAware ADS-B (SDAM)
08:21PM -22.8614 -47.3379 127° Southeast 213 245 6,300 -1,260 Descending FlightAware ADS-B (SDAM)
08:21PM -22.8701 -47.3257 127° Southeast 204 235 6,000 -1,020 Descending FlightAware ADS-B (SDAM)
08:21PM -22.8788 -47.3135 127° Southeast 196 226 5,800 -1,020 Descending FlightAware ADS-B (SDAM)
08:21PM -22.8871 -47.3021 127° Southeast 188 216 5,500 -1,020 Descending FlightAware ADS-B (SDAM)
08:22PM -22.8951 -47.2910 127° Southeast 178 205 5,300 -1,020 Descending FlightAware ADS-B (SDAM)
08:22PM -22.9024 -47.2808 127° Southeast 170 196 5,000 -1,080 Descending FlightAware ADS-B (SDAM)
08:22PM -22.9095 -47.2710 127° Southeast 161 185 4,800 -840 Descending FlightAware ADS-B (SDAM)
08:22PM -22.9161 -47.2617 128° Southeast 150 173 4,600 -840 Descending FlightAware ADS-B (SDAM)
08:23PM -22.9225 -47.2528 127° Southeast 144 166 4,400 -840 Descending FlightAware ADS-B (SDAM)
08:23PM -22.9286 -47.2446 128° Southeast 140 161 4,200 -780 Descending FlightAware ADS-B (SDAM)
08:23PM -22.9346 -47.2362 127° Southeast 134 154 4,000 -780 Descending FlightAware ADS-B (SDAM)
08:23PM -22.9400 -47.2286 127° Southeast 124 143 3,800 -660 Descending FlightAware ADS-B (SDAM)
08:24PM -22.9451 -47.2214 128° Southeast 116 133 3,700 -660 Descending FlightAware ADS-B (SDAM)
08:24PM -22.9501 -47.2145 127° Southeast 112 129 3,500 -600 Descending FlightAware ADS-B (SDAM)
08:24PM -22.9549 -47.2078 128° Southeast 111 128 3,400 -600 Descending FlightAware ADS-B (SDAM)
08:24PM -22.9596 -47.2013 127° Southeast 108 124 3,200 -600 Descending FlightAware ADS-B (SDAM)
08:25PM -22.9642 -47.1948 127° Southeast 108 124 3,100 -660 Descending FlightAware ADS-B (SDAM)
08:25PM -22.9688 -47.1883 127° Southeast 107 123 2,900 -600 Descending FlightAware ADS-B (SDAM)
08:25PM -22.9733 -47.1820 128° Southeast 106 122 2,800 -600 Descending FlightAware ADS-B (SDAM)
08:25PM -22.9781 -47.1755 127° Southeast 107 123 2,600 -600 Descending FlightAware ADS-B (SDAM)
08:26PM -22.9826 -47.1690 127° Southeast 107 123 2,500 -420 Descending FlightAware ADS-B (SDAM)
08:26PM -22.9873 -47.1627 127° Southeast 109 125 2,400 -600 Descending FlightAware ADS-B (SDAM)
08:26PM -22.9920 -47.1560 126° Southeast 108 124 2,200 -600 Descending FlightAware ADS-B (SDAM)
08:26PM -22.9966 -47.1496 127° Southeast 107 123 2,100 -360 Descending FlightAware ADS-B (SDAM)
08:27PM -23.0015 -47.1427 127° Southeast 92 106 2,000 -300 Descending FlightAware ADS-B (SDAM)